Time;durP1;ratioP1;P1;durP2;ratioP2;P2;SDS_P1;SDS_P2;PMS_P1;PMS_P2;Temp;Humidity;BMP_temperature;BMP_pressure;BME280_temperature;BME280_humidity;BME280_pressure;Samples;Min_cycle;Max_cycle;Signal;HPM_P1;HPM_P2
2023/01/17 00:02:01;;;;;;;5.00;0.77;;;3.60;99.90;;;;;;5068351;28;20072;-63
2023/01/17 00:10:00;;;;;;;2.08;0.65;;;3.70;99.90;;;;;;5068618;28;20136;-67
2023/01/17 00:12:28;;;;;;;6.00;0.70;;;3.70;99.90;;;;;;5050343;28;20048;-66
2023/01/17 00:14:56;;;;;;;2.33;0.60;;;3.70;99.90;;;;;;5051981;28;20105;-66
2023/01/17 00:17:23;;;;;;;2.72;0.60;;;3.70;99.90;;;;;;5067529;28;20040;-66
2023/01/17 01:35:21;;;;;;;3.80;0.93;;;2.80;99.90;;;;;;5068022;28;20085;-67
2023/01/17 01:37:46;;;;;;;3.97;0.32;;;2.80;99.90;;;;;;5070336;28;20051;-65
2023/01/17 01:40:14;;;;;;;4.45;0.40;;;2.80;99.90;;;;;;5071285;28;20040;-66
2023/01/17 01:42:49;;;;;;;2.05;0.50;;;2.80;99.90;;;;;;5071056;28;20505;-68
2023/01/17 01:45:18;;;;;;;2.38;0.30;;;2.70;99.90;;;;;;5054803;28;20055;-65
2023/01/17 01:47:45;;;;;;;4.25;0.68;;;2.60;99.90;;;;;;5071153;28;20044;-66
2023/01/17 01:50:12;;;;;;;2.42;0.40;;;2.50;99.90;;;;;;5071522;28;20490;-65
2023/01/17 01:52:43;;;;;;;2.08;0.52;;;2.50;99.90;;;;;;5070810;28;20132;-66
2023/01/17 01:55:22;;;;;;;3.03;0.40;;;2.40;99.90;;;;;;5070656;28;20075;-66
2023/01/17 01:57:51;;;;;;;1.67;0.40;;;2.40;99.90;;;;;;5070685;28;20044;-65
2023/01/17 02:00:37;;;;;;;3.60;0.55;;;2.30;99.90;;;;;;5072184;28;20051;-64
2023/01/17 02:03:10;;;;;;;4.85;0.50;;;2.30;99.90;;;;;;5071988;28;20032;-63
2023/01/17 02:05:36;;;;;;;2.17;0.60;;;2.30;99.90;;;;;;5070758;28;20033;-68
2023/01/17 02:08:06;;;;;;;2.83;0.45;;;2.30;99.90;;;;;;5068798;28;20045;-63
2023/01/17 02:10:37;;;;;;;1.80;0.30;;;2.20;99.90;;;;;;5067691;28;20092;-66
2023/01/17 02:13:04;;;;;;;2.65;0.50;;;2.20;99.90;;;;;;5069961;28;20035;-64
2023/01/17 02:15:52;;;;;;;1.60;0.40;;;2.30;99.90;;;;;;5066624;28;20423;-65
2023/01/17 02:18:27;;;;;;;3.72;1.17;;;2.20;99.90;;;;;;5069148;28;20048;-64
2023/01/17 02:21:23;;;;;;;2.50;0.60;;;2.30;99.90;;;;;;5069101;28;20048;-66
2023/01/17 02:24:04;;;;;;;3.08;0.60;;;2.30;99.90;;;;;;5068181;28;20040;-65
2023/01/17 02:26:47;;;;;;;3.97;0.63;;;2.40;99.90;;;;;;5084389;28;20044;-65
2023/01/17 02:29:15;;;;;;;2.03;0.68;;;2.40;99.90;;;;;;5068348;28;20072;-64
2023/01/17 02:32:13;;;;;;;5.13;1.20;;;2.40;99.90;;;;;;5069530;28;20037;-64
2023/01/17 02:35:00;;;;;;;6.25;0.80;;;2.50;99.90;;;;;;5069425;28;20136;-65
2023/01/17 02:37:47;;;;;;;3.45;0.50;;;2.50;99.90;;;;;;5068394;28;20044;-65
2023/01/17 02:40:21;;;;;;;9.73;1.35;;;2.50;99.90;;;;;;5068638;28;20043;-65
2023/01/17 02:42:53;;;;;;;3.75;0.77;;;2.60;99.90;;;;;;5068419;28;20064;-65
2023/01/17 02:45:20;;;;;;;;;;;2.60;99.90;;;;;;5064604;28;20062;-65
2023/01/17 02:47:45;;;;;;;2.55;0.47;;;2.60;99.90;;;;;;5067990;28;20427;-65
2023/01/17 02:50:21;;;;;;;2.08;0.35;;;2.60;99.90;;;;;;5068805;28;20107;-63
2023/01/17 02:52:53;;;;;;;1.33;0.40;;;2.60;99.90;;;;;;5068303;28;20032;-65
2023/01/17 02:55:22;;;;;;;2.97;0.70;;;2.60;99.90;;;;;;5067245;28;20044;-65
2023/01/17 02:58:14;;;;;;;4.28;0.50;;;2.60;99.90;;;;;;5069494;28;20487;-65
2023/01/17 03:00:49;;;;;;;3.00;0.63;;;2.60;99.90;;;;;;5065539;28;20092;-65
2023/01/17 03:03:15;;;;;;;2.80;0.75;;;2.60;99.90;;;;;;5063068;28;20044;-66
2023/01/17 03:05:56;;;;;;;5.70;1.33;;;2.60;99.90;;;;;;5051105;28;20040;-65
2023/01/17 03:08:23;;;;;;;5.72;0.95;;;2.50;99.90;;;;;;5067810;28;20558;-67
2023/01/17 03:10:48;;;;;;;6.13;0.50;;;2.60;99.90;;;;;;5067907;28;20081;-65
2023/01/17 03:13:14;;;;;;;6.55;0.60;;;2.60;99.90;;;;;;5065495;28;20102;-66
2023/01/17 03:15:40;;;;;;;4.60;1.35;;;2.50;99.90;;;;;;5067472;28;20040;-66
2023/01/17 03:18:11;;;;;;;4.93;0.43;;;2.50;99.90;;;;;;5066829;28;20044;-66
2023/01/17 03:20:37;;;;;;;7.43;0.60;;;2.50;99.90;;;;;;5066533;28;20036;-64
2023/01/17 03:23:02;;;;;;;5.32;0.75;;;2.50;99.90;;;;;;5067839;28;20086;-65
2023/01/17 03:25:28;;;;;;;4.88;0.68;;;2.50;99.90;;;;;;5067944;28;20044;-66
2023/01/17 03:27:53;;;;;;;3.20;0.55;;;2.50;99.90;;;;;;5064541;28;20052;-67
2023/01/17 03:30:21;;;;;;;2.80;0.50;;;2.50;99.90;;;;;;5067164;28;20036;-67
2023/01/17 03:32:48;;;;;;;10.82;0.82;;;2.50;99.90;;;;;;5067074;28;20044;-65
2023/01/17 03:35:14;;;;;;;7.43;0.50;;;2.50;99.90;;;;;;5063388;28;20047;-65
2023/01/17 03:37:40;;;;;;;3.60;0.40;;;2.50;99.90;;;;;;5067684;28;20032;-67
2023/01/17 03:40:06;;;;;;;6.75;0.75;;;2.40;99.90;;;;;;5066905;28;20135;-65
2023/01/17 03:42:31;;;;;;;4.85;0.60;;;2.40;99.90;;;;;;5065263;28;20033;-67
2023/01/17 03:44:57;;;;;;;5.03;0.60;;;2.30;99.90;;;;;;5069033;28;20040;-66
2023/01/17 03:47:23;;;;;;;4.57;0.90;;;2.20;99.90;;;;;;5068865;28;20040;-65
2023/01/17 03:49:48;;;;;;;5.50;1.20;;;2.10;99.90;;;;;;5066972;28;20036;-67
2023/01/17 03:52:14;;;;;;;4.75;0.52;;;2.00;99.90;;;;;;5070004;28;20044;-64
2023/01/17 03:54:39;;;;;;;6.57;0.50;;;2.00;99.90;;;;;;5068313;28;20392;-65
2023/01/17 03:57:07;;;;;;;4.80;0.50;;;1.90;99.90;;;;;;5068828;28;20049;-65
2023/01/17 03:59:33;;;;;;;7.80;0.98;;;1.90;99.90;;;;;;5067672;28;20150;-63
2023/01/17 04:01:59;;;;;;;5.75;0.73;;;1.90;99.90;;;;;;5067721;28;20112;-66
2023/01/17 04:04:25;;;;;;;5.47;0.50;;;1.90;99.90;;;;;;5068752;28;20043;-66
2023/01/17 04:06:50;;;;;;;4.43;0.85;;;1.90;99.90;;;;;;5068565;28;20399;-64
2023/01/17 04:09:16;;;;;;;4.95;0.50;;;1.90;99.90;;;;;;5069853;28;20040;-65
2023/01/17 04:11:42;;;;;;;5.25;0.70;;;1.90;99.90;;;;;;5067918;28;20785;-64
2023/01/17 04:14:07;;;;;;;4.15;0.60;;;1.90;99.90;;;;;;5068803;28;20028;-65
2023/01/17 04:16:33;;;;;;;4.65;0.70;;;1.80;99.90;;;;;;5068523;28;20433;-63
2023/01/17 04:18:59;;;;;;;6.28;0.60;;;1.80;99.90;;;;;;5070014;28;20029;-65
2023/01/17 04:21:25;;;;;;;6.10;0.70;;;1.80;99.90;;;;;;5067172;28;20036;-66
2023/01/17 04:23:50;;;;;;;6.55;1.50;;;1.80;99.90;;;;;;5066079;28;20043;-66
2023/01/17 04:26:16;;;;;;;6.82;0.60;;;1.70;99.90;;;;;;5069810;28;20109;-64
2023/01/17 04:28:41;;;;;;;9.05;0.93;;;1.70;99.90;;;;;;5068460;28;20442;-63
2023/01/17 04:31:13;;;;;;;6.13;0.80;;;1.70;99.90;;;;;;5067781;28;20048;-64
2023/01/17 04:33:39;;;;;;;7.97;1.50;;;1.60;99.90;;;;;;5068293;28;20047;-64
2023/01/17 04:36:05;;;;;;;5.05;0.90;;;1.60;99.90;;;;;;5068440;28;20044;-66
2023/01/17 04:38:31;;;;;;;5.30;0.70;;;1.60;99.90;;;;;;5068358;28;20101;-64
2023/01/17 04:40:56;;;;;;;5.82;0.70;;;1.60;99.90;;;;;;5067975;28;20410;-65
2023/01/17 04:43:22;;;;;;;3.63;0.70;;;1.50;99.90;;;;;;5060233;28;20570;-62
2023/01/17 04:45:54;;;;;;;3.72;0.60;;;1.50;99.90;;;;;;5066022;28;20048;-66
2023/01/17 04:48:20;;;;;;;5.70;0.50;;;1.40;99.90;;;;;;5065999;28;20448;-65
2023/01/17 04:50:46;;;;;;;3.55;0.45;;;1.40;99.90;;;;;;5068138;28;20040;-64
2023/01/17 04:53:11;;;;;;;6.40;1.10;;;1.40;99.90;;;;;;5067642;28;20412;-65
2023/01/17 04:55:37;;;;;;;3.33;0.80;;;1.40;99.90;;;;;;5068337;28;20059;-64
2023/01/17 04:58:03;;;;;;;6.43;0.70;;;1.40;99.90;;;;;;5068094;28;20512;-65
2023/01/17 05:00:29;;;;;;;5.57;0.57;;;1.40;99.90;;;;;;5068562;28;20036;-67
2023/01/17 05:02:54;;;;;;;3.47;0.65;;;1.40;99.90;;;;;;5069468;28;20174;-66
2023/01/17 05:05:20;;;;;;;6.03;0.80;;;1.40;99.90;;;;;;5065362;28;20395;-64
2023/01/17 05:07:53;;;;;;;4.65;0.60;;;1.30;99.90;;;;;;5070086;28;20530;-64
2023/01/17 05:10:19;;;;;;;7.05;0.80;;;1.30;99.90;;;;;;5071561;28;20049;-65
2023/01/17 05:13:01;;;;;;;4.72;0.60;;;1.30;99.90;;;;;;5071776;28;20032;-63
2023/01/17 05:15:27;;;;;;;7.63;0.70;;;1.30;99.90;;;;;;5070950;28;20048;-65
2023/01/17 05:17:54;;;;;;;5.47;1.30;;;1.20;99.90;;;;;;5070661;28;20410;-64
2023/01/17 05:20:21;;;;;;;5.90;0.70;;;1.20;99.90;;;;;;5071894;28;20041;-67
2023/01/17 05:22:57;;;;;;;4.93;0.50;;;1.20;99.90;;;;;;5071823;28;20410;-63
2023/01/17 05:25:27;;;;;;;4.32;0.85;;;1.20;99.90;;;;;;5070936;28;20044;-64
2023/01/17 05:27:53;;;;;;;3.80;0.55;;;1.20;99.90;;;;;;5070567;28;20056;-65
2023/01/17 05:30:20;;;;;;;2.85;0.47;;;1.20;99.90;;;;;;5071525;28;20059;-68
2023/01/17 05:32:50;;;;;;;5.03;0.50;;;1.20;99.90;;;;;;5071675;28;20364;-63
2023/01/17 05:35:27;;;;;;;3.50;0.60;;;1.20;99.90;;;;;;5054130;28;20060;-66
2023/01/17 05:37:54;;;;;;;2.83;1.58;;;1.10;99.90;;;;;;5070005;28;20072;-64
2023/01/17 05:40:28;;;;;;;6.47;0.80;;;1.10;99.90;;;;;;5071087;28;20513;-65
2023/01/17 05:42:56;;;;;;;4.45;1.27;;;1.10;99.90;;;;;;5071046;28;20110;-64
2023/01/17 05:45:24;;;;;;;6.13;0.60;;;1.10;99.90;;;;;;5070775;28;20076;-65
2023/01/17 05:47:51;;;;;;;4.95;0.73;;;1.00;99.90;;;;;;5070618;28;20044;-65
2023/01/17 05:50:19;;;;;;;3.00;0.82;;;1.00;99.90;;;;;;5071233;28;20479;-65
2023/01/17 05:52:56;;;;;;;5.22;0.70;;;1.00;99.90;;;;;;5071119;28;20462;-65
2023/01/17 05:55:23;;;;;;;8.02;1.13;;;1.10;99.90;;;;;;5071020;28;20047;-66
2023/01/17 05:57:49;;;;;;;6.60;1.05;;;1.10;99.90;;;;;;5069357;28;20102;-66
2023/01/17 06:00:16;;;;;;;4.05;0.80;;;1.30;99.90;;;;;;5054260;28;20130;-67
2023/01/17 06:02:42;;;;;;;3.08;0.63;;;1.30;99.90;;;;;;5067870;28;20047;-65
2023/01/17 06:05:08;;;;;;;4.03;0.93;;;1.40;99.90;;;;;;5070586;28;20052;-65
2023/01/17 06:07:34;;;;;;;4.10;0.77;;;1.40;99.90;;;;;;5067683;28;20047;-66
2023/01/17 06:10:00;;;;;;;5.82;0.70;;;1.40;99.90;;;;;;5066357;28;20044;-65
2023/01/17 06:12:25;;;;;;;3.40;0.43;;;1.30;99.90;;;;;;5067919;28;20458;-66
2023/01/17 06:14:51;;;;;;;4.70;0.95;;;1.30;99.90;;;;;;5070480;28;20045;-64
2023/01/17 06:17:17;;;;;;;4.60;0.80;;;1.30;99.90;;;;;;5070130;28;20083;-65
2023/01/17 06:19:42;;;;;;;2.10;0.70;;;1.20;99.90;;;;;;5069858;28;20048;-65
2023/01/17 06:22:08;;;;;;;2.88;0.55;;;1.20;99.90;;;;;;5070257;28;20391;-66
2023/01/17 06:24:33;;;;;;;2.10;0.50;;;1.10;99.90;;;;;;5070346;28;20105;-65
2023/01/17 06:26:59;;;;;;;2.28;0.40;;;1.10;99.90;;;;;;5070236;28;20102;-64
2023/01/17 06:29:25;;;;;;;4.40;0.50;;;1.10;99.90;;;;;;5070340;28;20045;-65
2023/01/17 06:31:51;;;;;;;4.72;0.77;;;1.00;99.90;;;;;;5069557;28;20045;-64
2023/01/17 06:34:17;;;;;;;4.82;1.38;;;1.00;99.90;;;;;;5070061;28;20124;-63
2023/01/17 06:36:42;;;;;;;2.40;0.50;;;0.90;99.90;;;;;;5069783;28;20513;-64
2023/01/17 06:39:11;;;;;;;3.13;0.40;;;0.90;99.90;;;;;;5069322;28;20360;-65
2023/01/17 06:41:36;;;;;;;3.85;0.50;;;0.90;99.90;;;;;;5053808;28;20407;-65
2023/01/17 06:44:03;;;;;;;4.82;0.93;;;0.90;99.90;;;;;;5070112;28;20047;-66
2023/01/17 06:46:28;;;;;;;18.38;8.88;;;0.90;99.90;;;;;;5070983;28;20185;-67
2023/01/17 06:48:54;;;;;;;14.43;7.55;;;0.90;99.90;;;;;;5070980;28;20530;-64
2023/01/17 06:51:20;;;;;;;8.30;2.30;;;1.00;99.90;;;;;;5050815;28;20048;-64
2023/01/17 06:53:49;;;;;;;5.05;0.90;;;1.00;99.90;;;;;;5069971;28;20051;-64
2023/01/17 06:56:14;;;;;;;7.85;0.85;;;0.90;99.90;;;;;;5070024;28;20395;-65
2023/01/17 06:58:40;;;;;;;3.75;0.68;;;1.00;99.90;;;;;;5069888;28;20055;-65
2023/01/17 07:01:10;;;;;;;4.63;0.60;;;1.00;99.90;;;;;;5067678;28;20033;-65
2023/01/17 07:03:36;;;;;;;6.82;0.88;;;0.90;99.90;;;;;;5063197;28;20048;-64
2023/01/17 07:06:03;;;;;;;7.32;1.00;;;1.00;99.90;;;;;;5065705;28;20116;-65
2023/01/17 07:08:30;;;;;;;6.22;1.02;;;1.00;99.90;;;;;;5069259;28;20041;-65
2023/01/17 07:11:05;;;;;;;7.90;1.70;;;1.00;99.90;;;;;;5068433;28;20049;-63
2023/01/17 07:13:34;;;;;;;4.78;0.98;;;1.00;99.90;;;;;;5067465;28;20048;-65
2023/01/17 07:16:00;;;;;;;4.97;1.33;;;1.00;99.90;;;;;;5066126;28;20044;-65
2023/01/17 07:18:26;;;;;;;5.40;1.30;;;1.00;99.90;;;;;;5051654;28;20041;-63
2023/01/17 07:20:53;;;;;;;6.28;0.85;;;1.00;99.90;;;;;;5066648;28;20083;-64
2023/01/17 07:23:20;;;;;;;4.35;0.75;;;1.00;99.90;;;;;;5067386;28;20041;-66
2023/01/17 07:25:57;;;;;;;8.93;0.90;;;1.10;99.90;;;;;;5068325;28;20041;-65
2023/01/17 07:28:24;;;;;;;3.67;0.65;;;1.10;99.90;;;;;;5067804;28;20043;-63
2023/01/17 07:30:50;;;;;;;6.07;0.70;;;1.10;99.90;;;;;;5068761;28;20558;-65
2023/01/17 07:33:17;;;;;;;8.65;0.80;;;1.00;99.90;;;;;;5062815;28;20047;-64
2023/01/17 07:35:43;;;;;;;6.90;0.70;;;1.00;99.90;;;;;;5068069;28;20056;-65
2023/01/17 07:38:17;;;;;;;4.47;0.88;;;1.00;99.90;;;;;;5067818;28;20060;-65
2023/01/17 07:40:43;;;;;;;4.90;0.52;;;1.10;99.90;;;;;;5067911;28;20084;-63
2023/01/17 07:43:12;;;;;;;6.88;0.82;;;1.10;99.90;;;;;;5065010;28;20411;-65
2023/01/17 07:45:45;;;;;;;2.92;0.68;;;1.10;99.90;;;;;;5068962;28;20506;-63
2023/01/17 07:48:11;;;;;;;5.78;0.68;;;1.10;99.90;;;;;;5067399;28;20039;-65
2023/01/17 07:50:37;;;;;;;2.95;0.60;;;1.20;99.90;;;;;;5069129;28;20499;-66
2023/01/17 07:53:04;;;;;;;3.50;0.65;;;1.10;99.90;;;;;;5050354;28;20076;-66
2023/01/17 07:55:30;;;;;;;3.13;0.68;;;1.10;99.90;;;;;;5068776;28;20040;-64
2023/01/17 07:57:56;;;;;;;3.97;0.60;;;1.20;99.90;;;;;;5065843;28;20032;-63
2023/01/17 08:00:22;;;;;;;4.30;0.70;;;1.10;99.90;;;;;;5067345;28;20123;-66
2023/01/17 08:02:48;;;;;;;2.35;0.60;;;1.10;99.90;;;;;;5068862;28;20044;-64
2023/01/17 08:05:14;;;;;;;4.32;0.75;;;1.10;99.90;;;;;;5065468;28;20036;-64
2023/01/17 08:07:40;;;;;;;3.42;0.90;;;1.10;99.90;;;;;;5067252;28;20059;-65
2023/01/17 08:10:07;;;;;;;5.15;0.73;;;1.10;99.90;;;;;;5065945;28;20052;-63
2023/01/17 08:12:34;;;;;;;4.25;0.68;;;1.00;99.90;;;;;;5066087;28;20114;-63
2023/01/17 08:15:00;;;;;;;3.72;1.00;;;1.00;99.90;;;;;;5068947;28;20041;-63
2023/01/17 08:17:27;;;;;;;3.78;0.80;;;1.00;99.90;;;;;;5066747;28;20094;-63
2023/01/17 08:19:52;;;;;;;3.33;0.85;;;0.90;99.90;;;;;;5067066;28;20056;-66
2023/01/17 08:22:18;;;;;;;4.78;1.05;;;0.90;99.90;;;;;;5068412;28;20082;-64
2023/01/17 08:24:44;;;;;;;6.88;1.02;;;0.90;99.90;;;;;;5068588;28;20041;-68
2023/01/17 08:27:10;;;;;;;6.68;0.80;;;0.90;99.90;;;;;;5068381;28;20083;-67
2023/01/17 08:29:36;;;;;;;3.95;1.10;;;0.90;99.90;;;;;;5052257;28;20044;-66
2023/01/17 08:32:02;;;;;;;5.20;1.13;;;0.90;99.90;;;;;;5069123;28;20403;-67
2023/01/17 08:34:27;;;;;;;5.15;1.05;;;0.90;99.90;;;;;;5068911;28;20372;-63
2023/01/17 08:36:53;;;;;;;6.82;1.38;;;1.00;99.90;;;;;;5066107;28;20043;-64
2023/01/17 08:39:20;;;;;;;4.55;1.30;;;1.00;99.90;;;;;;5067148;28;20029;-65
2023/01/17 08:41:45;;;;;;;5.68;1.17;;;1.00;99.90;;;;;;5071033;28;20116;-64
2023/01/17 08:44:12;;;;;;;7.70;1.75;;;1.00;99.90;;;;;;5073525;28;20501;-66
2023/01/17 08:46:38;;;;;;;5.15;1.40;;;1.00;99.90;;;;;;5072152;28;20501;-65
2023/01/17 08:49:04;;;;;;;7.45;1.60;;;1.00;99.90;;;;;;5072243;28;20121;-64
2023/01/17 08:51:31;;;;;;;7.75;1.60;;;1.00;99.90;;;;;;5073420;28;20491;-64
2023/01/17 08:53:57;;;;;;;4.00;1.25;;;1.10;99.90;;;;;;5072289;28;20364;-63
2023/01/17 08:56:24;;;;;;;5.38;1.67;;;1.10;99.90;;;;;;5073299;28;20572;-64
2023/01/17 08:58:50;;;;;;;3.83;1.55;;;1.10;99.90;;;;;;5072330;28;20040;-65
2023/01/17 09:01:16;;;;;;;5.82;1.33;;;1.10;99.90;;;;;;5072242;28;20048;-66
2023/01/17 09:03:42;;;;;;;6.90;1.52;;;1.20;99.90;;;;;;5071434;28;20127;-64
2023/01/17 09:06:13;;;;;;;4.32;1.38;;;1.20;99.90;;;;;;5055211;28;20048;-64
2023/01/17 09:08:40;;;;;;;6.18;1.55;;;1.20;99.90;;;;;;5054896;28;20036;-64
2023/01/17 09:11:11;;;;;;;9.75;1.80;;;1.30;99.90;;;;;;5071847;28;20048;-67
2023/01/17 09:13:38;;;;;;;6.32;1.20;;;1.30;99.90;;;;;;5071898;28;20052;-66
2023/01/17 09:16:05;;;;;;;4.80;1.35;;;1.40;99.90;;;;;;5071498;28;20047;-64
2023/01/17 09:18:32;;;;;;;4.78;1.17;;;1.40;99.90;;;;;;5071470;28;20048;-65
2023/01/17 09:20:58;;;;;;;6.78;1.50;;;1.50;99.90;;;;;;5071596;28;20127;-67
2023/01/17 09:23:28;;;;;;;6.00;1.50;;;1.50;99.90;;;;;;5072899;28;20094;-64
2023/01/17 09:25:55;;;;;;;5.30;1.10;;;1.60;99.90;;;;;;5071234;28;20503;-64
2023/01/17 09:28:21;;;;;;;5.07;1.13;;;1.60;99.90;;;;;;5069774;28;20102;-65
2023/01/17 09:30:47;;;;;;;7.60;1.38;;;1.80;99.90;;;;;;5071236;28;20041;-64
2023/01/17 09:33:14;;;;;;;4.40;1.35;;;1.90;99.90;;;;;;5070863;28;20552;-65
2023/01/17 09:35:39;;;;;;;5.50;1.20;;;2.00;99.90;;;;;;5071098;28;20032;-63
2023/01/17 09:38:06;;;;;;;7.70;1.58;;;2.10;99.90;;;;;;5072559;28;20046;-65
2023/01/17 09:40:32;;;;;;;5.90;1.58;;;2.10;99.90;;;;;;5071053;28;20041;-67
2023/01/17 09:43:03;;;;;;;5.90;1.42;;;2.20;99.90;;;;;;5054620;28;20048;-64
2023/01/17 09:45:31;;;;;;;6.20;1.20;;;2.20;99.90;;;;;;5070223;28;20086;-66
2023/01/17 09:47:58;;;;;;;4.00;0.90;;;2.10;99.90;;;;;;5070502;28;20048;-65
2023/01/17 09:50:27;;;;;;;4.65;1.00;;;2.30;99.90;;;;;;5070376;28;20183;-65
2023/01/17 09:53:00;;;;;;;5.85;1.10;;;2.50;99.90;;;;;;5070508;28;20567;-63
2023/01/17 09:55:27;;;;;;;;;;;2.70;99.90;;;;;;5055134;28;20045;-66
2023/01/17 09:58:05;;;;;;;5.45;1.20;;;2.90;99.90;;;;;;5068015;28;19928;-65
2023/01/17 10:00:40;;;;;;;4.38;1.15;;;3.20;99.90;;;;;;5052697;28;20048;-64
2023/01/17 10:03:12;;;;;;;2.58;1.20;;;3.40;99.90;;;;;;5069698;28;20037;-68
2023/01/17 10:05:55;;;;;;;5.75;1.67;;;3.70;99.90;;;;;;5070142;28;20055;-65
2023/01/17 10:08:36;;;;;;;5.72;1.20;;;3.80;99.90;;;;;;5070332;28;20386;-64
2023/01/17 10:11:23;;;;;;;3.78;1.20;;;4.00;99.90;;;;;;5069690;28;20491;-65
2023/01/17 10:14:17;;;;;;;6.07;1.15;;;4.10;99.90;;;;;;5070654;28;20049;-63
2023/01/17 10:17:02;;;;;;;5.47;1.30;;;4.30;99.90;;;;;;5069705;28;20048;-63
2023/01/17 10:19:59;;;;;;;6.47;1.10;;;4.60;99.90;;;;;;5063314;28;20491;-65
2023/01/17 10:22:42;;;;;;;5.03;1.33;;;4.80;99.90;;;;;;5069236;28;20115;-68
2023/01/17 10:25:11;;;;;;;5.15;1.00;;;4.90;99.90;;;;;;5068811;28;20079;-64
2023/01/17 10:27:42;;;;;;;4.60;1.17;;;5.40;99.90;;;;;;5069685;28;20052;-65
2023/01/17 10:30:42;;;;;;;7.43;1.58;;;5.50;99.90;;;;;;5070128;28;20048;-65
2023/01/17 10:33:28;;;;;;;5.85;1.30;;;5.50;99.90;;;;;;5069061;28;20036;-64
2023/01/17 10:35:59;;;;;;;4.20;1.08;;;5.70;99.90;;;;;;5067365;28;20127;-65
2023/01/17 10:38:32;;;;;;;5.15;1.25;;;5.80;99.90;;;;;;5069406;28;20041;-67
2023/01/17 10:41:27;;;;;;;6.70;1.33;;;5.80;99.90;;;;;;5069157;28;20048;-65
2023/01/17 10:43:52;;;;;;;6.13;1.23;;;5.60;99.90;;;;;;5064560;28;20068;-63
2023/01/17 10:46:27;;;;;;;6.38;1.92;;;5.60;99.90;;;;;;5069445;28;20045;-66
2023/01/17 10:48:53;;;;;;;6.55;1.13;;;5.70;99.90;;;;;;5069744;28;20036;-66
2023/01/17 10:51:49;;;;;;;7.47;1.30;;;5.70;99.90;;;;;;5069726;28;20372;-65
2023/01/17 10:54:40;;;;;;;4.53;1.20;;;5.80;99.90;;;;;;5052274;28;20037;-65
2023/01/17 10:57:20;;;;;;;6.20;1.38;;;5.80;99.90;;;;;;5047844;28;20056;-66
2023/01/17 10:59:45;;;;;;;7.50;1.50;;;5.80;99.90;;;;;;5031856;28;20083;-67
2023/01/17 11:02:35;;;;;;;10.18;1.30;;;5.90;99.90;;;;;;5031529;28;20496;-68
2023/01/17 11:05:09;;;;;;;4.05;1.30;;;5.90;99.90;;;;;;5029364;28;20103;-66
2023/01/17 11:07:36;;;;;;;5.85;1.20;;;6.00;99.90;;;;;;5030501;28;20129;-65
2023/01/17 11:10:03;;;;;;;8.23;1.08;;;5.90;99.90;;;;;;5031000;28;20045;-67
2023/01/17 11:12:34;;;;;;;5.65;1.10;;;6.00;99.90;;;;;;5031283;28;20128;-66
2023/01/17 11:15:08;;;;;;;5.45;1.25;;;6.00;99.90;;;;;;5031403;28;20052;-67
2023/01/17 11:17:40;;;;;;;3.72;0.90;;;5.80;99.90;;;;;;5031241;28;20044;-67
2023/01/17 11:20:31;;;;;;;2.42;1.00;;;5.70;99.90;;;;;;5031122;28;20083;-65
2023/01/17 11:23:14;;;;;;;5.22;1.27;;;5.70;99.90;;;;;;5031948;28;20371;-64
2023/01/17 11:25:47;;;;;;;6.72;1.05;;;5.60;99.90;;;;;;5030061;28;20110;-68
2023/01/17 11:28:24;;;;;;;7.47;1.08;;;5.50;99.90;;;;;;5029998;28;20124;-66
2023/01/17 11:30:56;;;;;;;6.82;1.20;;;5.60;99.90;;;;;;5031463;28;20041;-66
2023/01/17 11:33:44;;;;;;;8.10;1.13;;;5.50;99.90;;;;;;5035718;28;20097;-64
2023/01/17 11:36:26;;;;;;;5.95;1.00;;;5.40;99.90;;;;;;5066914;28;20036;-65
2023/01/17 11:39:16;;;;;;;5.67;1.73;;;5.50;99.90;;;;;;5068729;28;20166;-66
2023/01/17 11:41:42;;;;;;;6.88;1.20;;;5.90;99.90;;;;;;5068770;28;20044;-64
2023/01/17 11:44:29;;;;;;;6.25;1.90;;;7.60;99.90;;;;;;5069092;28;20465;-66
2023/01/17 11:47:15;;;;;;;3.92;0.95;;;9.20;99.90;;;;;;5049959;28;20048;-64
2023/01/17 11:49:46;;;;;;;7.50;1.58;;;9.10;99.90;;;;;;5068649;28;20194;-64
2023/01/17 11:52:18;;;;;;;6.10;1.10;;;8.30;99.90;;;;;;5066857;28;20372;-64
2023/01/17 11:54:48;;;;;;;5.68;1.30;;;8.10;99.90;;;;;;5068609;28;20044;-66
2023/01/17 11:57:20;;;;;;;3.58;1.50;;;8.70;99.90;;;;;;5068209;28;20037;-64
2023/01/17 11:59:46;;;;;;;5.60;1.42;;;9.00;99.90;;;;;;5069731;28;20033;-64
2023/01/17 12:02:37;;;;;;;3.78;1.17;;;8.80;99.90;;;;;;5067593;28;20045;-63
2023/01/17 12:05:26;;;;;;;7.70;1.30;;;9.00;99.90;;;;;;5067808;28;20044;-64
2023/01/17 12:08:29;;;;;;;4.57;1.30;;;8.80;99.90;;;;;;5050145;28;20059;-63
2023/01/17 12:11:06;;;;;;;4.97;1.58;;;9.20;99.90;;;;;;5066221;28;20084;-64
2023/01/17 12:14:00;;;;;;;5.93;1.50;;;11.60;99.90;;;;;;5068978;28;20429;-63
2023/01/17 12:16:59;;;;;;;6.20;1.73;;;11.70;99.90;;;;;;5070763;28;20515;-67
2023/01/17 12:19:59;;;;;;;4.82;1.45;;;11.80;99.90;;;;;;5070447;28;20036;-63
2023/01/17 12:22:43;;;;;;;6.13;1.50;;;11.00;98.80;;;;;;5054934;28;20044;-65
2023/01/17 12:25:54;;;;;;;4.68;1.35;;;9.60;99.90;;;;;;5070198;28;20076;-63
2023/01/17 12:28:46;;;;;;;4.28;1.60;;;9.30;99.90;;;;;;5062949;28;20044;-67
2023/01/17 12:31:33;;;;;;;6.72;1.33;;;9.10;99.90;;;;;;5070783;28;20033;-65
2023/01/17 12:34:23;;;;;;;3.60;1.40;;;8.30;99.90;;;;;;5069784;28;20044;-64
2023/01/17 12:37:00;;;;;;;3.70;1.20;;;9.40;99.90;;;;;;5071153;28;20056;-63
2023/01/17 12:39:40;;;;;;;4.38;1.20;;;9.80;99.90;;;;;;5072338;28;20044;-64
2023/01/17 12:42:26;;;;;;;6.35;1.75;;;10.10;99.90;;;;;;5072386;28;20048;-65
2023/01/17 12:45:02;;;;;;;6.70;1.70;;;11.00;99.80;;;;;;5071707;28;20051;-65
2023/01/17 12:47:32;;;;;;;6.72;1.13;;;11.30;98.90;;;;;;5080988;28;20044;-64
2023/01/17 12:50:19;;;;;;;8.10;2.00;;;10.10;98.40;;;;;;5071076;28;20151;-65
2023/01/17 12:52:50;;;;;;;6.88;1.40;;;11.20;98.70;;;;;;5070290;28;20044;-65
2023/01/17 12:55:41;;;;;;;2.63;1.15;;;11.30;98.00;;;;;;5070410;28;20040;-64
2023/01/17 12:58:15;;;;;;;4.97;1.30;;;11.90;95.70;;;;;;5012455;28;20053;-66
2023/01/17 13:00:44;;;;;;;4.72;1.15;;;12.80;95.90;;;;;;5014834;28;20132;-65
2023/01/17 13:03:35;;;;;;;3.53;1.13;;;12.10;94.10;;;;;;5014588;28;20121;-64
2023/01/17 13:06:02;;;;;;;5.45;1.33;;;11.90;93.60;;;;;;5014107;28;20072;-66
2023/01/17 13:08:45;;;;;;;4.72;1.63;;;10.60;94.10;;;;;;5031116;28;20037;-63
2023/01/17 13:11:32;;;;;;;3.08;0.95;;;10.00;95.10;;;;;;5014033;28;20050;-64
2023/01/17 13:13:58;;;;;;;4.55;1.20;;;10.00;95.40;;;;;;5013999;28;20083;-65
2023/01/17 13:16:49;;;;;;;4.50;1.10;;;9.30;96.50;;;;;;5013943;28;20064;-65
2023/01/17 13:19:37;;;;;;;3.38;1.27;;;9.20;98.30;;;;;;5013902;28;20425;-63
2023/01/17 13:22:09;;;;;;;5.32;1.20;;;10.00;98.70;;;;;;5013762;28;20081;-65
2023/01/17 13:24:40;;;;;;;3.03;1.17;;;8.90;98.00;;;;;;5030782;28;20121;-65
2023/01/17 13:27:24;;;;;;;3.70;1.15;;;8.70;99.20;;;;;;5012716;28;20042;-68
2023/01/17 13:30:11;;;;;;;2.30;1.20;;;9.90;98.50;;;;;;5013907;28;20045;-64
2023/01/17 13:33:14;;;;;;;2.35;0.95;;;10.00;97.60;;;;;;5013880;28;20041;-67
2023/01/17 13:35:43;;;;;;;6.03;1.00;;;9.90;98.80;;;;;;4981392;28;20046;-65
2023/01/17 13:38:27;;;;;;;4.65;1.48;;;8.80;98.00;;;;;;4994276;28;20050;-65
2023/01/17 13:41:00;;;;;;;7.20;1.10;;;8.00;98.60;;;;;;4994380;28;20077;-64
2023/01/17 13:43:39;;;;;;;2.13;0.90;;;7.20;99.70;;;;;;4993734;28;20060;-67
2023/01/17 13:46:05;;;;;;;5.55;1.00;;;7.20;99.90;;;;;;4994329;28;20045;-65
2023/01/17 13:48:31;;;;;;;3.28;0.90;;;7.10;99.90;;;;;;4993693;28;20048;-64
2023/01/17 13:51:04;;;;;;;3.25;1.40;;;7.00;99.90;;;;;;4994076;28;20053;-66
2023/01/17 13:53:33;;;;;;;6.40;1.30;;;7.10;99.90;;;;;;4993843;28;20046;-65
2023/01/17 13:56:17;;;;;;;2.13;0.80;;;7.00;99.90;;;;;;4977895;28;20144;-68
2023/01/17 13:58:57;;;;;;;6.00;2.30;;;6.90;99.90;;;;;;4993959;28;20092;-65
2023/01/17 14:01:22;;;;;;;5.55;1.13;;;6.30;99.90;;;;;;4993646;28;20112;-66
2023/01/17 14:03:48;;;;;;;3.42;0.85;;;6.30;99.90;;;;;;4994107;28;20117;-64
2023/01/17 14:06:34;;;;;;;3.83;1.23;;;6.00;99.90;;;;;;5010207;28;20121;-63
2023/01/17 14:09:30;;;;;;;4.28;1.50;;;5.70;99.90;;;;;;5024710;28;20041;-62
2023/01/17 14:12:04;;;;;;;2.58;1.05;;;5.60;99.90;;;;;;5071187;28;20542;-64
2023/01/17 14:14:36;;;;;;;4.72;1.08;;;5.40;99.90;;;;;;5070724;28;20048;-62
2023/01/17 14:17:19;;;;;;;3.13;1.00;;;5.20;99.90;;;;;;5070936;28;20040;-63
2023/01/17 14:19:47;;;;;;;3.33;0.95;;;5.00;99.90;;;;;;5072130;28;20087;-65
2023/01/17 14:22:18;;;;;;;3.60;1.00;;;4.90;99.90;;;;;;5071024;28;20056;-63
2023/01/17 14:25:08;;;;;;;4.32;1.33;;;4.70;99.90;;;;;;5070296;28;20063;-63
2023/01/17 14:27:51;;;;;;;3.55;1.13;;;4.60;99.90;;;;;;5070117;28;20123;-63
2023/01/17 14:30:23;;;;;;;;;;;4.60;99.90;;;;;;5070679;28;20040;-63
2023/01/17 14:32:58;;;;;;;2.67;0.90;;;4.70;99.90;;;;;;5070197;28;19920;-64
2023/01/17 14:35:36;;;;;;;5.95;1.33;;;4.70;99.90;;;;;;5071724;28;20050;-63
2023/01/17 14:38:13;;;;;;;3.70;1.20;;;4.70;99.90;;;;;;5070750;28;20072;-65
2023/01/17 14:40:38;;;;;;;4.10;1.20;;;4.70;99.90;;;;;;5069983;28;20037;-65
2023/01/17 14:43:22;;;;;;;4.13;1.38;;;4.70;99.90;;;;;;5070091;28;20514;-65
2023/01/17 14:45:55;;;;;;;4.35;1.60;;;4.70;99.90;;;;;;5069593;28;20090;-64